Time;durP1;ratioP1;P1;durP2;ratioP2;P2;SDS_P1;SDS_P2;PMS_P1;PMS_P2;Temp;Humidity;BMP_temperature;BMP_pressure;BME280_temperature;BME280_humidity;BME280_pressure;Samples;Min_cycle;Max_cycle;Signal;HPM_P1;HPM_P2
2022/04/16 00:00:59;;;;;;;11.93;6.57;;;;;;;10.51;63.15;96943.66;5098712;28;20189;-83
2022/04/16 00:03:27;;;;;;;10.20;6.77;;;;;;;10.71;63.70;96994.53;5091005;28;20192;-84
2022/04/16 00:05:55;;;;;;;8.83;5.77;;;;;;;10.84;63.62;97016.34;5091253;28;20195;-85
2022/04/16 00:08:24;;;;;;;7.17;5.70;;;;;;;10.87;63.89;97022.22;5071551;28;20256;-83
2022/04/16 00:10:54;;;;;;;7.07;5.43;;;;;;;11.00;63.16;97033.69;5074714;28;20612;-84
2022/04/16 00:13:24;;;;;;;7.83;5.50;;;;;;;10.90;63.34;97022.06;5075626;28;20282;-85
2022/04/16 00:15:54;;;;;;;7.87;5.40;;;;;;;10.94;63.21;97017.59;5090029;28;20707;-84
2022/04/16 00:18:22;;;;;;;6.90;5.23;;;;;;;10.97;63.63;97023.47;5089612;28;20190;-83
2022/04/16 00:20:51;;;;;;;6.53;5.50;;;;;;;10.77;63.50;96995.06;5070998;28;20190;-83
2022/04/16 00:23:20;;;;;;;7.63;5.43;;;;;;;10.84;63.82;97013.78;5090936;28;20189;-84
2022/04/16 00:25:48;;;;;;;8.00;5.03;;;;;;;10.82;64.09;97018.19;5073021;28;20275;-84
2022/04/16 00:28:16;;;;;;;10.27;5.30;;;;;;;10.30;64.21;96934.31;5075808;28;20193;-83
2022/04/16 00:30:43;;;;;;;7.00;5.20;;;;;;;10.76;63.83;97008.94;5091758;28;20285;-83
2022/04/16 00:33:14;;;;;;;7.67;5.33;;;;;;;10.83;64.02;97018.09;5092267;28;20220;-83
2022/04/16 00:35:42;;;;;;;8.50;5.33;;;;;;;10.79;64.04;97024.34;5070360;28;20710;-83
2022/04/16 00:38:10;;;;;;;8.37;5.40;;;;;;;10.84;63.72;97022.34;5090150;28;20188;-84
2022/04/16 00:40:37;;;;;;;8.07;5.90;;;;;;;10.77;63.73;97023.56;5070785;28;20859;-86
2022/04/16 00:43:05;;;;;;;7.03;5.23;;;;;;;10.60;64.32;97010.56;5090778;28;20184;-92
2022/04/16 00:45:34;;;;;;;7.40;5.70;;;;;;;10.74;64.26;97018.53;5099515;28;20199;-92
2022/04/16 00:48:01;;;;;;;8.33;5.77;;;;;;;10.50;64.32;96986.00;5073073;28;20185;-88
2022/04/16 00:50:28;;;;;;;8.63;5.63;;;;;;;10.52;64.80;96999.72;5114349;28;20220;-85
2022/04/16 00:52:56;;;;;;;8.43;6.20;;;;;;;10.54;65.21;97008.25;5097675;28;20229;-87
2022/04/16 00:55:23;;;;;;;9.50;6.07;;;;;;;10.54;65.05;97014.28;5117541;28;20180;-87
2022/04/16 00:57:51;;;;;;;11.10;5.87;;;;;;;10.31;65.57;96974.81;5099481;28;20248;-85
2022/04/16 01:00:19;;;;;;;7.10;6.00;;;;;;;10.17;65.86;96995.31;5098928;28;20188;-88
2022/04/16 01:02:49;;;;;;;9.60;6.13;;;;;;;9.99;66.85;96988.31;5115395;28;20203;-88
2022/04/16 01:05:19;;;;;;;7.57;5.40;;;;;;;9.89;66.94;96982.72;5116553;28;20174;-90
2022/04/16 01:07:59;;;;;;;8.73;6.17;;;;;;;10.03;67.19;97007.97;5099044;28;20194;-87
2022/04/16 01:10:29;;;;;;;8.37;6.20;;;;;;;10.10;67.35;97012.00;5092618;28;20257;-85
2022/04/16 01:13:01;;;;;;;7.90;5.60;;;;;;;10.06;67.31;97011.25;5073773;28;20255;-85
2022/04/16 01:15:29;;;;;;;9.47;6.40;;;;;;;9.89;67.25;96987.06;5091718;28;20208;-85
2022/04/16 01:17:59;;;;;;;9.03;5.87;;;;;;;10.02;67.05;96998.53;5072372;28;20232;-85
2022/04/16 01:20:26;;;;;;;8.57;6.17;;;;;;;9.75;66.98;96967.81;5093099;28;20177;-84
2022/04/16 01:22:54;;;;;;;6.13;5.47;;;;;;;9.89;66.86;96972.38;5072269;28;20197;-86
2022/04/16 01:25:24;;;;;;;7.33;5.40;;;;;;;10.04;66.39;96994.13;5071282;28;20266;-85
2022/04/16 01:27:52;;;;;;;7.17;5.03;;;;;;;9.96;66.56;96970.34;5072952;28;20547;-85
2022/04/16 01:30:22;;;;;;;7.07;5.37;;;;;;;10.27;65.96;97009.50;5071883;28;20202;-86
2022/04/16 01:32:49;;;;;;;8.83;5.77;;;;;;;10.39;65.83;97004.63;5091892;28;20599;-85
2022/04/16 01:35:17;;;;;;;6.83;5.33;;;;;;;10.26;65.92;97000.88;5093254;28;20186;-85
2022/04/16 01:37:44;;;;;;;6.50;5.50;;;;;;;9.98;65.98;96965.94;5092239;28;20189;-86
2022/04/16 01:40:14;;;;;;;7.53;5.50;;;;;;;9.96;67.09;96993.63;5093039;28;20180;-85
2022/04/16 01:42:43;;;;;;;9.13;5.63;;;;;;;9.90;67.03;96979.22;5094132;28;20185;-84
2022/04/16 01:45:11;;;;;;;7.13;5.80;;;;;;;9.55;67.69;96952.31;5059920;28;20253;-84
2022/04/16 01:47:39;;;;;;;6.23;5.17;;;;;;;9.81;68.08;96990.81;5073012;28;20260;-84
2022/04/16 01:50:10;;;;;;;7.67;5.13;;;;;;;9.81;67.69;96990.81;5042725;28;20196;-84
2022/04/16 01:52:41;;;;;;;7.77;5.93;;;;;;;9.67;67.94;96985.41;5052181;28;20229;-83
2022/04/16 01:55:12;;;;;;;6.87;5.60;;;;;;;9.39;68.75;96977.16;5070543;28;20197;-84
2022/04/16 01:57:40;;;;;;;7.20;5.73;;;;;;;9.38;69.72;96988.38;5058466;28;20199;-83
2022/04/16 02:00:13;;;;;;;6.43;5.37;;;;;;;9.32;69.47;96972.28;5060255;28;20226;-84
2022/04/16 02:02:41;;;;;;;8.13;5.37;;;;;;;9.44;70.21;96979.50;5085876;28;20185;-85
2022/04/16 02:05:09;;;;;;;6.77;5.20;;;;;;;9.42;70.35;96979.59;5107910;28;20177;-83
2022/04/16 02:07:38;;;;;;;7.10;5.37;;;;;;;9.33;69.82;96982.56;5113390;28;20185;-89
2022/04/16 02:10:09;;;;;;;8.07;6.40;;;;;;;9.35;70.13;96975.59;5098365;28;20251;-84
2022/04/16 02:12:37;;;;;;;8.83;6.07;;;;;;;9.20;70.05;96942.63;5098145;28;20654;-84
2022/04/16 02:15:05;;;;;;;6.93;5.97;;;;;;;9.35;70.09;96967.84;5119642;28;20225;-89
2022/04/16 02:17:33;;;;;;;8.30;6.37;;;;;;;9.39;69.17;96971.13;5102310;28;20180;-84
2022/04/16 02:20:00;;;;;;;12.17;6.33;;;;;;;9.29;69.60;96933.66;5115683;28;20212;-83
2022/04/16 02:22:44;;;;;;;9.07;6.50;;;;;;;9.28;70.37;96956.06;5063799;28;20253;-83
2022/04/16 02:25:16;;;;;;;7.23;5.60;;;;;;;9.20;70.39;96940.06;5074111;28;20208;-94
2022/04/16 02:27:44;;;;;;;8.90;5.67;;;;;;;9.24;70.57;96951.94;5057687;28;20263;-83
2022/04/16 02:30:15;;;;;;;10.60;6.27;;;;;;;9.34;70.21;96954.97;5089804;28;20201;-84
2022/04/16 02:32:46;;;;;;;8.60;6.07;;;;;;;9.38;70.32;96969.44;5091467;28;20213;-84
2022/04/16 02:35:15;;;;;;;11.13;6.30;;;;;;;9.42;70.29;96968.41;5091944;28;20190;-82
2022/04/16 02:37:43;;;;;;;10.33;6.20;;;;;;;9.54;69.44;96965.31;5077718;28;20185;-84
2022/04/16 02:40:11;;;;;;;8.67;5.83;;;;;;;8.90;68.76;96853.53;5088623;28;20239;-84
2022/04/16 02:42:40;;;;;;;6.70;5.67;;;;;;;9.50;69.26;96935.34;5088332;28;20660;-84
2022/04/16 02:47:56;;;;;;;7.10;6.13;;;;;;;9.65;69.03;96957.91;5090475;28;20663;-84
2022/04/16 02:50:27;;;;;;;8.27;5.37;;;;;;;9.59;69.03;96963.34;5097833;28;20288;-84
2022/04/16 02:52:55;;;;;;;7.73;5.83;;;;;;;8.78;69.15;96862.59;5095312;28;20232;-86
2022/04/16 02:55:22;;;;;;;7.13;5.83;;;;;;;8.84;70.01;96884.78;5098601;28;20215;-84
2022/04/16 02:57:50;;;;;;;7.47;5.13;;;;;;;8.80;70.26;96909.00;5098561;28;20185;-84
2022/04/16 03:00:20;;;;;;;7.63;5.47;;;;;;;8.96;70.07;96930.75;5079659;28;20193;-90
2022/04/16 03:02:48;;;;;;;8.23;5.90;;;;;;;8.96;71.40;96951.41;5093092;28;20193;-86
2022/04/16 03:05:17;;;;;;;8.83;6.00;;;;;;;8.97;71.28;96953.06;5097255;28;20201;-86
2022/04/16 03:07:44;;;;;;;7.60;5.30;;;;;;;8.94;71.59;96929.97;5091266;28;20193;-85
2022/04/16 03:10:12;;;;;;;9.43;5.77;;;;;;;8.99;70.63;96925.44;5060602;28;20205;-85
2022/04/16 03:12:43;;;;;;;9.33;5.57;;;;;;;9.29;70.01;96944.00;5081784;28;20220;-84
2022/04/16 03:17:56;;;;;;;9.27;6.13;;;;;;;9.73;69.11;96948.94;5093500;28;20190;-85
2022/04/16 03:20:23;;;;;;;9.30;6.30;;;;;;;9.58;67.87;96920.34;5077965;28;20182;-85
2022/04/16 03:22:50;;;;;;;17.27;6.67;;;;;;;9.70;66.87;96930.97;5081083;28;20219;-84
2022/04/16 03:25:17;;;;;;;9.37;6.43;;;;;;;9.44;68.04;96913.16;5099841;28;20177;-86
2022/04/16 03:27:45;;;;;;;9.13;5.97;;;;;;;9.49;67.41;96931.91;5099230;28;20165;-85
2022/04/16 03:30:12;;;;;;;12.03;5.93;;;;;;;9.48;66.86;96929.41;5099099;28;20252;-85
2022/04/16 03:32:41;;;;;;;7.90;5.60;;;;;;;9.60;67.01;96952.94;5099053;28;20575;-85
2022/04/16 03:35:09;;;;;;;8.73;5.77;;;;;;;9.65;66.54;96969.09;5098975;28;20200;-84
2022/04/16 03:37:37;;;;;;;10.33;6.17;;;;;;;9.26;67.61;96973.38;5099263;28;20189;-86
2022/04/16 03:40:06;;;;;;;12.73;7.17;;;;;;;8.84;67.47;96919.16;5080979;28;20185;-85
2022/04/16 03:42:34;;;;;;;10.03;6.40;;;;;;;8.73;67.99;96913.59;5092525;28;20185;-85
2022/04/16 03:45:01;;;;;;;10.83;7.77;;;;;;;9.15;67.09;96983.31;5073197;28;20189;-85
2022/04/16 03:47:29;;;;;;;13.70;6.97;;;;;;;8.77;67.84;96946.16;5089740;28;20192;-85
2022/04/16 03:49:56;;;;;;;14.63;6.70;;;;;;;8.78;68.70;96972.78;5071077;28;20193;-84
2022/04/16 03:52:23;;;;;;;11.80;6.33;;;;;;;8.14;69.95;96946.84;5086563;28;20243;-84
2022/04/16 04:00:22;;;;;;;9.93;7.13;;;;;;;7.89;72.76;96989.91;5068590;28;20197;-84
2022/04/16 04:02:49;;;;;;;12.33;7.90;;;;;;;7.57;73.24;96912.06;5087629;28;20181;-85
2022/04/16 04:05:19;;;;;;;17.07;8.60;;;;;;;8.01;72.89;96945.66;5086096;28;20193;-86
2022/04/16 04:07:46;;;;;;;10.63;8.07;;;;;;;8.54;72.56;96989.22;5054619;28;20279;-85
2022/04/16 04:10:13;;;;;;;11.83;8.40;;;;;;;8.51;71.00;96933.41;5090206;28;20205;-84
2022/04/16 04:12:40;;;;;;;10.80;7.20;;;;;;;9.11;68.88;96981.75;5089785;28;20217;-86
2022/04/16 04:15:10;;;;;;;12.43;7.60;;;;;;;9.35;67.66;96964.41;5088958;28;20196;-85
2022/04/16 04:17:37;;;;;;;9.97;7.60;;;;;;;9.68;66.63;96969.00;5070363;28;20189;-86
2022/04/16 04:20:05;;;;;;;9.97;6.67;;;;;;;10.06;65.07;96966.44;5087353;28;20227;-85
2022/04/16 04:22:32;;;;;;;10.17;6.63;;;;;;;10.26;64.15;96972.41;5091770;28;20273;-84
2022/04/16 04:24:59;;;;;;;14.17;6.90;;;;;;;10.29;64.40;96974.03;5088390;28;20185;-84
2022/04/16 04:27:26;;;;;;;12.83;6.67;;;;;;;9.89;65.39;96958.59;5087694;28;20181;-85
2022/04/16 04:29:53;;;;;;;9.00;6.40;;;;;;;10.12;65.99;97000.69;5072422;28;20193;-86
2022/04/16 04:32:24;;;;;;;14.53;9.07;;;;;;;10.30;65.02;96978.31;5058344;28;20227;-85
2022/04/16 04:34:52;;;;;;;14.07;6.87;;;;;;;10.28;64.42;96954.25;5059814;28;20201;-87
2022/04/16 04:37:19;;;;;;;16.33;8.53;;;;;;;10.05;64.72;96946.66;5087624;28;20674;-85
2022/04/16 04:39:46;;;;;;;10.93;7.10;;;;;;;10.30;65.41;97002.47;5058138;28;20186;-90
2022/04/16 04:42:26;;;;;;;10.77;7.60;;;;;;;10.25;65.75;96996.63;5081744;28;20707;-86
2022/04/16 04:44:54;;;;;;;9.63;6.83;;;;;;;10.08;66.19;96990.50;5076164;28;20189;-84
2022/04/16 04:47:21;;;;;;;10.50;6.53;;;;;;;10.33;65.96;96993.69;5080750;28;20182;-88
2022/04/16 04:49:49;;;;;;;7.67;5.00;;;;;;;10.37;65.76;96997.81;5058120;28;20216;-96
2022/04/16 04:52:27;;;;;;;7.90;5.70;;;;;;;10.47;65.53;96992.16;5082087;28;20222;-84
2022/04/16 04:54:54;;;;;;;8.30;5.07;;;;;;;10.53;65.77;96980.69;5084144;28;20211;-88
2022/04/16 04:57:24;;;;;;;7.93;5.17;;;;;;;10.60;64.85;96969.13;5083531;28;20239;-91
2022/04/16 04:59:53;;;;;;;6.67;4.70;;;;;;;10.81;65.09;96983.66;5087827;28;20189;-84
2022/04/16 05:02:20;;;;;;;8.30;5.23;;;;;;;11.21;63.40;96990.34;5105090;28;20181;-91
2022/04/16 05:04:48;;;;;;;8.03;5.43;;;;;;;11.43;63.43;96997.00;5109675;28;20659;-82
2022/04/16 05:07:17;;;;;;;10.03;6.50;;;;;;;11.55;61.79;96992.09;5092083;28;20193;-85
2022/04/16 05:09:44;;;;;;;8.83;5.10;;;;;;;11.55;61.94;96989.50;5075679;28;20188;-85
2022/04/16 05:12:11;;;;;;;7.90;5.20;;;;;;;11.48;61.52;96959.63;5063691;28;20228;-84
2022/04/16 05:14:40;;;;;;;7.77;5.57;;;;;;;11.75;61.11;96972.03;5070521;28;20192;-85
2022/04/16 05:17:09;;;;;;;6.90;4.80;;;;;;;11.95;60.50;96938.09;5088576;28;20187;-86
2022/04/16 05:19:36;;;;;;;6.67;5.17;;;;;;;12.53;59.37;96982.56;5069948;28;20203;-87
2022/04/16 05:22:04;;;;;;;5.97;5.13;;;;;;;12.62;59.12;96976.88;5089652;28;20186;-86
2022/04/16 05:24:32;;;;;;;10.30;5.73;;;;;;;12.24;59.46;96931.38;5088805;28;20198;-83
2022/04/16 05:26:59;;;;;;;9.40;6.03;;;;;;;12.22;59.55;96899.44;5091936;28;20189;-85
2022/04/16 05:29:32;;;;;;;9.20;5.70;;;;;;;12.67;59.55;96974.88;5082378;28;20194;-85
2022/04/16 05:31:59;;;;;;;10.93;6.50;;;;;;;12.50;60.27;96940.34;5061797;28;20197;-88
2022/04/16 05:34:26;;;;;;;9.30;6.20;;;;;;;12.83;59.78;96964.47;5077586;28;20229;-85
2022/04/16 05:36:53;;;;;;;7.87;5.27;;;;;;;12.99;59.15;96932.31;5081045;28;20242;-87
2022/04/16 05:39:21;;;;;;;8.20;5.10;;;;;;;13.74;57.72;96965.25;5082627;28;20258;-84
2022/04/16 05:41:49;;;;;;;7.40;5.00;;;;;;;13.97;56.45;96958.66;5077473;28;20196;-85
2022/04/16 05:44:16;;;;;;;9.87;4.93;;;;;;;14.12;56.00;96937.72;5079180;28;20191;-85
2022/04/16 05:46:50;;;;;;;7.37;4.97;;;;;;;13.96;55.44;96908.34;5075866;28;20632;-85
2022/04/16 05:49:18;;;;;;;6.33;5.13;;;;;;;14.46;55.22;96963.41;5060707;28;20203;-84
2022/04/16 05:51:45;;;;;;;7.73;4.73;;;;;;;14.32;54.42;96921.72;5067876;28;20221;-86
2022/04/16 05:54:15;;;;;;;9.47;5.20;;;;;;;14.64;54.30;96941.41;5079646;28;20252;-95
2022/04/16 05:56:44;;;;;;;7.63;4.80;;;;;;;14.64;54.66;96958.81;5067559;28;20185;-88
2022/04/16 05:59:11;;;;;;;9.50;5.03;;;;;;;14.76;54.09;96936.31;5091225;28;20177;-85
2022/04/16 06:01:38;;;;;;;7.23;5.03;;;;;;;14.92;53.61;96950.06;5088011;28;20181;-93
2022/04/16 06:04:07;;;;;;;9.13;5.00;;;;;;;14.89;53.17;96935.44;5086527;28;20238;-82
2022/04/16 06:06:36;;;;;;;10.80;6.33;;;;;;;15.00;53.44;96945.19;5082609;28;20185;-82
2022/04/16 06:09:05;;;;;;;10.93;5.50;;;;;;;14.95;52.74;96931.59;5077335;28;20250;-83
2022/04/16 06:11:32;;;;;;;7.80;5.63;;;;;;;15.22;52.50;96948.91;5075789;28;20196;-83
2022/04/16 06:13:59;;;;;;;8.67;5.43;;;;;;;15.34;52.23;96953.31;5098217;28;20221;-85
2022/04/16 06:16:27;;;;;;;9.03;5.57;;;;;;;15.42;52.21;96950.19;5102909;28;20188;-85
2022/04/16 06:18:54;;;;;;;7.73;5.10;;;;;;;15.34;51.66;96918.56;5102106;28;20281;-86
2022/04/16 06:21:24;;;;;;;12.37;5.40;;;;;;;15.45;51.43;96960.47;5101440;28;20184;-84
2022/04/16 06:23:53;;;;;;;9.47;5.13;;;;;;;15.48;51.33;96959.44;5085299;28;20181;-85
2022/04/16 06:26:21;;;;;;;8.57;4.83;;;;;;;15.66;50.95;96958.22;5102351;28;20188;-85
2022/04/16 06:28:49;;;;;;;6.80;5.20;;;;;;;15.07;51.14;96905.56;5084326;28;20236;-85
2022/04/16 06:31:17;;;;;;;8.23;5.20;;;;;;;15.52;51.19;96943.44;5104721;28;20195;-84
2022/04/16 06:33:48;;;;;;;9.30;5.50;;;;;;;15.48;50.92;96946.41;5091829;28;20222;-86
2022/04/16 06:36:15;;;;;;;13.63;6.90;;;;;;;15.32;51.52;96910.84;5089995;28;20212;-91
2022/04/16 06:38:42;;;;;;;9.60;6.27;;;;;;;15.71;50.07;96943.91;5091835;28;20191;-90
2022/04/16 06:41:09;;;;;;;11.70;6.10;;;;;;;15.98;51.57;96951.63;5098551;28;20236;-90
2022/04/16 06:43:36;;;;;;;11.43;6.20;;;;;;;15.46;53.94;96908.16;5098255;28;20223;-92
2022/04/16 06:46:07;;;;;;;16.13;8.60;;;;;;;15.67;55.00;96929.38;5079955;28;20229;-86
2022/04/16 06:48:38;;;;;;;11.77;7.17;;;;;;;14.80;55.84;96912.56;5105895;28;20189;-84
2022/04/16 06:51:05;;;;;;;17.37;9.07;;;;;;;14.76;56.57;96928.50;5087161;28;20227;-87
2022/04/16 06:53:34;;;;;;;12.80;8.50;;;;;;;15.30;55.53;96949.25;5093476;28;20229;-86
2022/04/16 06:56:06;;;;;;;13.37;9.37;;;;;;;15.27;53.30;96863.34;5097915;28;20206;-85
2022/04/16 06:58:35;;;;;;;14.47;7.90;;;;;;;16.04;52.80;96946.81;5074964;28;20255;-85
2022/04/16 07:01:06;;;;;;;15.30;7.50;;;;;;;15.98;51.82;96894.16;5095348;28;20199;-85
2022/04/16 07:03:33;;;;;;;14.30;9.40;;;;;;;16.62;50.89;96942.78;5089403;28;20548;-84
2022/04/16 07:06:00;;;;;;;19.33;8.87;;;;;;;16.70;51.49;96919.53;5061604;28;20186;-84
2022/04/16 07:08:29;;;;;;;16.50;9.43;;;;;;;17.10;50.69;96936.63;5047394;28;20735;-83
2022/04/16 07:10:58;;;;;;;19.73;9.17;;;;;;;17.41;49.93;96933.41;5068668;28;20217;-85
2022/04/16 07:13:25;;;;;;;19.80;10.27;;;;;;;17.35;50.45;96899.81;5071853;28;20224;-90
2022/04/16 07:15:55;;;;;;;11.73;8.30;;;;;;;17.64;50.48;96923.88;5087739;28;20194;-84
2022/04/16 07:18:25;;;;;;;13.27;7.97;;;;;;;17.69;50.19;96919.09;5053047;28;20217;-85
2022/04/16 07:20:55;;;;;;;12.20;8.10;;;;;;;17.62;48.80;96915.28;5065375;28;20275;-91
2022/04/16 07:23:22;;;;;;;16.20;9.03;;;;;;;17.59;48.14;96899.78;5082079;28;20196;-84
2022/04/16 07:25:51;;;;;;;10.40;6.50;;;;;;;17.57;48.41;96902.53;5079405;28;20184;-86
2022/04/16 07:28:24;;;;;;;13.53;6.83;;;;;;;17.63;49.14;96902.06;5074930;28;20292;-87
2022/04/16 07:30:52;;;;;;;10.27;5.57;;;;;;;17.83;49.38;96911.84;5089486;28;20362;-86
2022/04/16 07:33:19;;;;;;;8.30;4.73;;;;;;;17.71;48.40;96906.72;5075668;28;20236;-88
2022/04/16 07:35:55;;;;;;;9.03;5.83;;;;;;;17.89;47.30;96910.53;5081276;28;20210;-92
2022/04/16 07:38:22;;;;;;;10.67;4.63;;;;;;;18.13;47.05;96905.22;5029511;28;20202;-90
2022/04/16 07:40:52;;;;;;;7.93;4.27;;;;;;;18.36;47.49;96905.06;5065648;28;20290;-87
2022/04/16 07:43:20;;;;;;;7.20;4.30;;;;;;;18.12;45.55;96858.97;5083263;28;20216;-88
2022/04/16 07:45:48;;;;;;;6.07;4.50;;;;;;;18.21;45.26;96871.38;5059510;28;20253;-91
2022/04/16 07:48:15;;;;;;;5.53;4.17;;;;;;;18.36;45.77;96880.66;5078719;28;20188;-88
2022/04/16 07:50:44;;;;;;;6.40;3.93;;;;;;;18.60;43.75;96883.97;5086994;28;20219;-92
2022/04/16 07:53:12;;;;;;;9.23;4.50;;;;;;;18.80;43.10;96870.06;5054677;28;20244;-91
2022/04/16 07:55:40;;;;;;;5.73;3.90;;;;;;;18.97;42.25;96885.28;5060982;28;20629;-92
2022/04/16 07:58:07;;;;;;;6.13;3.90;;;;;;;19.03;42.05;96871.66;5079922;28;20208;-85
2022/04/16 08:00:35;;;;;;;5.27;3.90;;;;;;;19.09;41.67;96873.78;5095029;28;20204;-86
2022/04/16 08:03:03;;;;;;;7.23;3.90;;;;;;;19.20;42.67;96888.66;5094413;28;20188;-90
2022/04/16 08:05:31;;;;;;;6.47;4.27;;;;;;;19.20;42.67;96873.72;5078694;28;20197;-92
2022/04/16 08:07:58;;;;;;;8.93;4.33;;;;;;;19.39;42.54;96887.00;5053384;28;20197;-89
2022/04/16 08:10:26;;;;;;;8.87;4.17;;;;;;;19.31;42.12;96852.66;5053892;28;20213;-87
2022/04/16 08:12:57;;;;;;;11.37;4.47;;;;;;;19.53;43.53;96882.41;5054386;28;20235;-92
2022/04/16 08:15:25;;;;;;;8.67;4.30;;;;;;;19.45;42.38;96868.13;5070627;28;20280;-86
2022/04/16 08:17:53;;;;;;;5.80;4.27;;;;;;;19.30;41.82;96858.88;5095104;28;20264;-91
2022/04/16 08:20:22;;;;;;;4.87;3.97;;;;;;;19.31;42.65;96860.53;5036697;28;20208;-89
2022/04/16 08:22:52;;;;;;;9.13;6.43;;;;;;;19.41;42.86;96869.34;5071936;28;20244;-88
2022/04/16 08:27:52;;;;;;;5.33;4.10;;;;;;;19.57;42.90;96847.88;5055921;28;20238;-85
2022/04/16 08:30:19;;;;;;;6.97;4.33;;;;;;;19.61;42.35;96824.78;5072944;28;20193;-93
2022/04/16 08:32:49;;;;;;;5.37;3.83;;;;;;;19.74;41.36;96862.22;5072085;28;20220;-91
2022/04/16 08:35:18;;;;;;;9.37;4.03;;;;;;;19.79;42.40;96865.25;5072909;28;20727;-95
2022/04/16 08:37:48;;;;;;;10.57;4.87;;;;;;;19.78;42.40;96861.84;5068596;28;20213;-89
2022/04/16 08:40:17;;;;;;;9.50;4.70;;;;;;;19.81;42.38;96861.56;5091360;28;20192;-83
2022/04/16 08:42:48;;;;;;;9.33;4.57;;;;;;;20.03;42.12;96865.81;5089818;28;20207;-88
2022/04/16 08:45:17;;;;;;;6.97;4.90;;;;;;;19.82;42.06;96817.72;5095755;28;20188;-87
2022/04/16 08:47:44;;;;;;;8.80;4.03;;;;;;;19.71;42.84;96865.09;5085101;28;20233;-88
2022/04/16 08:50:13;;;;;;;8.87;4.67;;;;;;;19.87;42.32;96862.81;5074216;28;20297;-89
2022/04/16 08:52:41;;;;;;;10.80;4.73;;;;;;;19.86;42.87;96855.91;5062484;28;20251;-87
2022/04/16 08:55:14;;;;;;;12.10;4.63;;;;;;;19.56;42.27;96808.59;5078570;28;20312;-91
2022/04/16 08:57:43;;;;;;;9.30;4.87;;;;;;;19.63;42.48;96844.72;5057081;28;20663;-85
2022/04/16 09:00:14;;;;;;;6.30;4.23;;;;;;;19.77;42.48;96851.44;5072003;28;20208;-85
2022/04/16 09:02:58;;;;;;;18.53;5.57;;;;;;;19.99;41.65;96836.31;5055243;28;20193;-84
2022/04/16 09:05:28;;;;;;;6.63;4.30;;;;;;;19.91;42.15;96851.91;5043793;28;20201;-94
2022/04/16 09:08:26;;;;;;;7.47;4.07;;;;;;;20.25;41.10;96852.50;5059500;28;20288;-84
2022/04/16 09:11:12;;;;;;;4.93;3.47;;;;;;;20.35;40.58;96836.72;5024412;28;20196;-87
2022/04/16 09:13:54;;;;;;;11.27;5.40;;;;;;;20.62;40.61;96845.66;5053448;28;20220;-85
2022/04/16 09:16:22;;;;;;;6.03;4.13;;;;;;;20.83;36.99;96838.47;5070377;28;20239;-87
2022/04/16 09:18:51;;;;;;;6.60;4.53;;;;;;;21.02;35.37;96833.22;5069765;28;20229;-85
2022/04/16 09:21:28;;;;;;;7.27;4.63;;;;;;;21.07;38.36;96832.81;5051420;28;20290;-84
2022/04/16 09:24:00;;;;;;;6.17;4.10;;;;;;;21.30;34.55;96836.00;5069761;28;20191;-84
2022/04/16 09:26:36;;;;;;;6.40;3.90;;;;;;;21.37;33.37;96826.56;5068457;28;20195;-84
2022/04/16 09:29:46;;;;;;;6.37;3.63;;;;;;;21.49;32.81;96825.41;5079797;28;20212;-84
2022/04/16 09:48:43;;;;;;;7.00;3.70;;;;;;;21.46;31.60;96823.06;5963778;23;20159;31
2022/04/16 09:51:52;;;;;;;7.07;4.10;;;;;;;21.38;31.88;96828.22;4872966;29;20230;-94
2022/04/16 09:55:14;;;;;;;14.37;4.23;;;;;;;21.26;31.97;96824.91;4878294;29;20217;-91
2022/04/16 09:58:40;;;;;;;5.13;4.33;;;;;;;21.38;31.44;96820.31;4863002;29;20257;-90
2022/04/16 10:02:01;;;;;;;7.77;4.60;;;;;;;21.57;31.57;96828.16;4874674;29;20186;-94
2022/04/16 10:05:22;;;;;;;4.80;3.70;;;;;;;21.61;30.79;96826.91;4853223;29;20255;-93
2022/04/16 10:08:44;;;;;;;6.70;4.00;;;;;;;21.62;31.12;96826.75;4855021;29;20259;-84
2022/04/16 10:15:45;;;;;;;6.43;3.80;;;;;;;21.82;30.52;96824.94;4859926;29;20281;-84
2022/04/16 10:19:07;;;;;;;7.63;4.13;;;;;;;21.87;29.87;96827.97;4835353;29;20230;-92
2022/04/16 10:22:27;;;;;;;7.43;4.33;;;;;;;21.81;30.01;96821.47;4849139;29;20268;-85
2022/04/16 10:25:52;;;;;;;8.67;3.80;;;;;;;21.90;30.06;96832.97;4854684;29;20194;-89
2022/04/16 10:29:12;;;;;;;5.10;4.00;;;;;;;21.73;29.88;96809.94;4858875;29;20215;-85
2022/04/16 10:32:33;;;;;;;6.73;3.83;;;;;;;21.82;29.39;96823.13;4842452;29;20204;-87
2022/04/16 10:35:56;;;;;;;6.17;3.83;;;;;;;22.02;29.43;96818.59;4868490;29;20240;-96
2022/04/16 10:39:17;;;;;;;5.40;4.13;;;;;;;22.13;29.21;96821.06;4879878;29;20206;-96
2022/04/16 10:42:51;;;;;;;5.60;4.13;;;;;;;22.01;29.74;96808.22;4880114;29;20199;-94
2022/04/16 10:45:36;;;;;;;4.30;3.57;;;;;;;21.74;29.38;96772.88;4879630;29;20202;-92
2022/04/16 10:48:03;;;;;;;7.47;4.00;;;;;;;22.07;29.44;96794.44;4865587;29;20253;-95
2022/04/16 10:50:31;;;;;;;5.53;3.80;;;;;;;22.44;29.66;96826.88;4900906;29;20238;-94
2022/04/16 10:53:05;;;;;;;6.43;3.80;;;;;;;22.67;29.55;96822.03;4901380;29;20207;-96
2022/04/16 10:55:36;;;;;;;7.60;4.37;;;;;;;22.47;29.25;96819.47;4901171;29;20261;-94
2022/04/16 10:58:08;;;;;;;5.77;3.80;;;;;;;22.09;29.65;96819.66;4903763;29;20197;-92
2022/04/16 11:00:46;;;;;;;5.83;4.03;;;;;;;22.20;30.22;96818.66;4899636;29;20222;-95
2022/04/16 11:03:30;;;;;;;6.03;4.10;;;;;;;21.94;29.49;96791.28;4899310;29;20187;-89
2022/04/16 11:06:05;;;;;;;7.50;3.83;;;;;;;22.00;30.00;96802.09;4897395;29;20259;-94
2022/04/16 11:08:35;;;;;;;5.33;3.80;;;;;;;21.79;29.71;96785.63;4891942;29;20199;-91
2022/04/16 11:11:06;;;;;;;5.07;3.60;;;;;;;21.61;30.10;96803.19;4888092;29;20262;-95
2022/04/16 11:13:39;;;;;;;4.93;3.90;;;;;;;21.78;30.31;96795.34;4889018;29;20278;-93
2022/04/16 11:16:08;;;;;;;6.33;3.60;;;;;;;22.15;29.75;96797.16;4892504;29;20624;-94
2022/04/16 11:18:45;;;;;;;6.07;3.43;;;;;;;22.37;29.77;96805.50;4892720;29;20216;-96
2022/04/16 11:21:39;;;;;;;6.93;3.83;;;;;;;22.22;29.46;96814.06;4889924;29;20230;-85
2022/04/16 11:24:07;;;;;;;6.03;4.03;;;;;;;22.25;29.29;96790.88;4892088;29;20207;-93
2022/04/16 11:34:57;;;;;;;5.47;3.90;;;;;;;21.94;30.48;96772.84;4896214;29;20229;-95
2022/04/16 11:37:32;;;;;;;4.37;3.40;;;;;;;21.98;30.19;96784.75;4880858;29;20196;-91
2022/04/16 11:40:05;;;;;;;7.60;3.63;;;;;;;22.22;30.15;96793.78;4889738;29;20195;-85
2022/04/16 11:42:33;;;;;;;7.20;4.33;;;;;;;21.87;30.15;96756.75;4882861;29;20197;-86
2022/04/16 11:45:05;;;;;;;7.43;4.00;;;;;;;22.12;30.22;96789.53;4864185;29;20206;-86
2022/04/16 11:47:42;;;;;;;5.93;3.97;;;;;;;22.24;30.09;96791.84;4867905;29;20264;-84
2022/04/16 11:50:11;;;;;;;7.53;3.70;;;;;;;22.15;29.47;96744.41;4897650;29;20294;-91
2022/04/16 11:52:40;;;;;;;9.77;3.73;;;;;;;21.87;29.76;96751.50;4897875;29;20224;-84
2022/04/16 11:55:16;;;;;;;7.70;3.87;;;;;;;21.96;29.57;96777.00;4872321;29;20244;-95
2022/04/16 11:57:46;;;;;;;4.60;3.67;;;;;;;22.01;30.23;96781.84;4891582;29;20251;-95
2022/04/16 12:00:17;;;;;;;7.90;3.63;;;;;;;22.20;29.64;96758.81;4885793;29;20722;-95
2022/04/16 12:02:47;;;;;;;4.87;3.83;;;;;;;22.67;29.16;96776.16;4848104;29;20195;-94
2022/04/16 12:05:17;;;;;;;12.93;3.97;;;;;;;22.49;30.02;96743.63;4865052;29;20201;-94
2022/04/16 12:07:52;;;;;;;6.90;3.97;;;;;;;22.70;30.21;96763.63;4878935;29;20197;-90
2022/04/16 12:10:24;;;;;;;6.53;4.03;;;;;;;22.52;30.36;96739.84;4881307;29;20203;-96
2022/04/16 12:12:53;;;;;;;10.73;4.10;;;;;;;22.58;31.09;96761.22;4897245;29;20211;-86
2022/04/16 12:15:26;;;;;;;8.67;4.30;;;;;;;22.26;30.53;96741.53;4900758;29;20214;-94
2022/04/16 12:17:55;;;;;;;8.27;3.57;;;;;;;22.23;31.71;96757.69;4891262;29;20654;-94
2022/04/16 12:20:24;;;;;;;6.97;3.30;;;;;;;22.02;32.89;96763.22;4897338;29;20190;-90
2022/04/16 12:23:00;;;;;;;4.97;3.43;;;;;;;22.15;32.40;96766.34;4898581;29;20256;-91
2022/04/16 12:25:32;;;;;;;5.83;3.50;;;;;;;22.15;32.03;96760.25;4894276;29;20202;-92
2022/04/16 12:28:01;;;;;;;5.90;3.20;;;;;;;21.83;32.14;96760.66;4877124;29;20229;-93
2022/04/16 12:30:32;;;;;;;8.30;3.33;;;;;;;21.96;32.11;96768.25;4878310;29;20223;-91
2022/04/16 12:33:10;;;;;;;5.93;3.13;;;;;;;21.95;32.49;96767.41;4877044;29;20221;-87
2022/04/16 12:35:47;;;;;;;9.67;6.03;;;;;;;21.61;32.11;96729.38;4874642;29;20229;-87
2022/04/16 12:38:17;;;;;;;8.50;4.03;;;;;;;21.67;31.99;96731.44;4884883;29;20193;-88
2022/04/16 12:40:46;;;;;;;5.57;2.97;;;;;;;21.70;31.75;96746.97;4892545;29;20197;-83